createdAt,value
2023-05-10T00:02:01.907Z,8.48
2023-05-10T00:04:28.749Z,14.20
2023-05-10T00:06:55.872Z,4.53
2023-05-10T00:09:22.471Z,4.38
2023-05-10T00:11:49.098Z,3.95
2023-05-10T00:14:15.780Z,5.95
2023-05-10T00:16:42.532Z,5.65
2023-05-10T00:19:09.228Z,6.75
2023-05-10T00:21:35.893Z,15.60
2023-05-10T00:24:02.539Z,10.40
2023-05-10T00:26:29.227Z,5.18
2023-05-10T00:28:55.951Z,6.28
2023-05-10T00:31:22.562Z,8.32
2023-05-10T00:33:49.217Z,6.07
2023-05-10T00:36:15.898Z,5.10
2023-05-10T00:38:42.538Z,4.88
2023-05-10T00:41:09.483Z,11.57
2023-05-10T00:43:36.117Z,6.15
2023-05-10T00:46:02.668Z,5.03
2023-05-10T00:48:30.484Z,6.35
2023-05-10T00:50:57.245Z,5.93
2023-05-10T00:53:25.541Z,7.10
2023-05-10T00:55:52.306Z,5.93
2023-05-10T00:58:18.951Z,9.65
2023-05-10T01:00:47.526Z,8.30
2023-05-10T01:03:14.213Z,14.18
2023-05-10T01:05:40.961Z,8.38
2023-05-10T01:08:09.669Z,15.05
2023-05-10T01:10:36.427Z,15.32
2023-05-10T01:13:04.176Z,8.40
2023-05-10T01:15:32.099Z,7.22
2023-05-10T01:17:59.174Z,13.48
2023-05-10T01:20:26.334Z,7.25
2023-05-10T01:23:12.653Z,9.77
2023-05-10T01:25:52.416Z,9.13
2023-05-10T01:28:41.646Z,9.38
2023-05-10T01:31:23.527Z,7.25
2023-05-10T01:34:03.662Z,7.50
2023-05-10T01:36:44.826Z,9.40
2023-05-10T01:41:50.607Z,8.35
2023-05-10T01:44:41.314Z,14.43
2023-05-10T01:47:21.372Z,10.55
2023-05-10T01:49:52.930Z,8.88
2023-05-10T01:52:27.225Z,17.17
2023-05-10T01:55:03.388Z,12.52
2023-05-10T01:57:35.404Z,9.80
2023-05-10T02:00:06.779Z,12.18
2023-05-10T02:02:38.779Z,9.60
2023-05-10T02:05:07.254Z,19.30
2023-05-10T02:07:36.469Z,16.08
2023-05-10T02:10:05.345Z,11.75
2023-05-10T02:12:36.504Z,12.63
2023-05-10T02:15:06.613Z,18.40
2023-05-10T02:17:34.095Z,12.00
2023-05-10T02:20:04.880Z,10.50
2023-05-10T02:22:32.955Z,15.80
2023-05-10T02:25:01.433Z,13.68
2023-05-10T02:27:30.088Z,13.38
2023-05-10T02:29:58.818Z,10.98
2023-05-10T02:32:28.013Z,14.48
2023-05-10T02:34:56.552Z,11.32
2023-05-10T02:37:23.814Z,11.70
2023-05-10T02:39:51.724Z,11.15
2023-05-10T02:42:21.333Z,12.55
2023-05-10T02:44:50.587Z,12.60
2023-05-10T02:47:17.780Z,23.08
2023-05-10T02:49:44.502Z,13.90
2023-05-10T02:52:17.403Z,13.25
2023-05-10T02:54:47.159Z,13.75
2023-05-10T02:57:20.276Z,14.65
2023-05-10T02:59:47.118Z,17.88
2023-05-10T03:02:14.259Z,12.20
2023-05-10T03:04:40.930Z,10.48
2023-05-10T03:07:08.756Z,14.75
2023-05-10T03:09:35.493Z,11.13
2023-05-10T03:12:09.333Z,8.00
2023-05-10T03:14:57.926Z,9.23
2023-05-10T03:17:41.171Z,6.95
2023-05-10T03:20:12.694Z,8.15
2023-05-10T03:22:44.127Z,10.50
2023-05-10T03:25:12.731Z,8.30
2023-05-10T03:27:42.554Z,7.43
2023-05-10T03:30:11.689Z,9.98
2023-05-10T03:32:38.628Z,8.35
2023-05-10T03:35:14.156Z,9.82
2023-05-10T03:37:40.897Z,11.75
2023-05-10T03:40:08.173Z,14.20
2023-05-10T03:42:34.945Z,11.35
2023-05-10T03:45:01.552Z,11.07
2023-05-10T03:47:28.151Z,10.07
2023-05-10T03:49:54.769Z,9.15
2023-05-10T03:52:21.369Z,10.07
2023-05-10T03:54:47.985Z,15.45
2023-05-10T03:57:14.579Z,13.63
2023-05-10T03:59:41.227Z,10.90
2023-05-10T04:02:07.851Z,8.68
2023-05-10T04:04:34.806Z,9.73
2023-05-10T04:07:01.438Z,16.25
2023-05-10T04:09:28.144Z,15.02
2023-05-10T04:11:54.832Z,9.25
2023-05-10T04:14:21.667Z,13.93
2023-05-10T04:16:48.475Z,10.30
2023-05-10T04:19:15.124Z,10.82
2023-05-10T04:21:41.834Z,12.40
2023-05-10T04:24:08.577Z,10.85
2023-05-10T04:26:35.342Z,11.93
2023-05-10T04:29:02.118Z,14.68
2023-05-10T04:31:29.014Z,12.45
2023-05-10T04:33:55.872Z,9.50
2023-05-10T04:36:22.530Z,8.60
2023-05-10T04:38:49.221Z,11.25
2023-05-10T04:41:15.904Z,10.48
2023-05-10T04:43:42.499Z,8.10
2023-05-10T04:46:09.172Z,7.25
2023-05-10T04:48:35.889Z,7.55
2023-05-10T04:51:02.555Z,8.98
2023-05-10T04:53:29.193Z,11.38
2023-05-10T04:55:55.835Z,7.22
2023-05-10T04:58:22.487Z,6.80
2023-05-10T05:00:49.086Z,5.68
2023-05-10T05:03:16.034Z,10.48
2023-05-10T05:05:42.751Z,6.93
2023-05-10T05:08:09.541Z,8.43
2023-05-10T05:10:36.313Z,9.50
2023-05-10T05:13:02.944Z,11.45
2023-05-10T05:15:29.677Z,5.20
2023-05-10T05:17:56.409Z,7.45
2023-05-10T05:20:23.288Z,14.00
2023-05-10T05:22:50.091Z,6.65
2023-05-10T05:25:16.977Z,7.60
2023-05-10T05:27:43.601Z,7.70
2023-05-10T05:30:10.633Z,6.00
2023-05-10T05:32:37.287Z,11.07
2023-05-10T05:35:03.953Z,8.38
2023-05-10T05:37:30.637Z,10.88
2023-05-10T05:39:57.295Z,13.20
2023-05-10T05:42:23.958Z,9.18
2023-05-10T05:44:50.682Z,6.90
2023-05-10T05:47:17.462Z,7.05
2023-05-10T05:49:46.850Z,10.20
2023-05-10T05:52:13.574Z,5.97
2023-05-10T05:54:40.538Z,11.52
2023-05-10T05:57:07.142Z,8.80
2023-05-10T05:59:34.049Z,19.75
2023-05-10T06:02:01.739Z,7.82
2023-05-10T06:04:28.756Z,8.15
2023-05-10T06:06:55.431Z,7.80
2023-05-10T06:09:22.075Z,9.25
2023-05-10T06:11:48.676Z,9.18
2023-05-10T06:14:15.791Z,9.10
2023-05-10T06:16:42.695Z,8.20
2023-05-10T06:19:09.329Z,5.82
2023-05-10T06:21:35.933Z,13.07
2023-05-10T06:24:03.695Z,7.00
2023-05-10T06:26:30.290Z,5.80
2023-05-10T06:28:56.890Z,5.95
2023-05-10T06:31:23.573Z,8.95
2023-05-10T06:33:50.220Z,8.75
2023-05-10T06:36:16.989Z,6.28
2023-05-10T06:38:43.688Z,5.03
2023-05-10T06:41:10.282Z,7.03
2023-05-10T06:43:38.054Z,3.83
2023-05-10T06:46:04.742Z,4.30
2023-05-10T06:48:31.332Z,10.15
2023-05-10T06:50:57.939Z,4.78
2023-05-10T06:53:24.581Z,6.07
2023-05-10T06:55:51.309Z,2.92
2023-05-10T06:58:17.926Z,5.03
2023-05-10T07:00:46.403Z,3.75
2023-05-10T07:03:13.277Z,3.35
2023-05-10T07:05:39.970Z,3.30
2023-05-10T07:08:06.622Z,3.92
2023-05-10T07:10:33.998Z,3.70
2023-05-10T07:13:01.545Z,2.72
2023-05-10T07:15:28.510Z,2.75
2023-05-10T07:17:55.346Z,4.28
2023-05-10T07:20:21.991Z,6.70
2023-05-10T07:22:48.620Z,15.88
2023-05-10T07:25:15.469Z,4.63
2023-05-10T07:27:42.301Z,5.00
2023-05-10T07:30:09.573Z,7.63
2023-05-10T07:32:36.251Z,5.00
2023-05-10T07:35:03.253Z,5.90
2023-05-10T07:37:30.007Z,5.88
2023-05-10T07:39:57.180Z,10.77
2023-05-10T07:42:23.980Z,5.82
2023-05-10T07:44:50.645Z,4.13
2023-05-10T07:47:17.811Z,5.95
2023-05-10T07:49:45.852Z,6.07
2023-05-10T07:52:12.851Z,4.75
2023-05-10T07:54:39.401Z,3.10
2023-05-10T07:57:06.061Z,6.28
2023-05-10T07:59:33.309Z,7.97
2023-05-10T08:02:00.001Z,3.35
2023-05-10T08:04:28.298Z,5.10
2023-05-10T08:06:57.031Z,3.33
2023-05-10T08:09:25.115Z,5.88
2023-05-10T08:11:52.066Z,3.63
2023-05-10T08:14:19.162Z,6.68
2023-05-10T08:16:45.780Z,7.90
2023-05-10T08:19:12.480Z,8.65
2023-05-10T08:21:39.307Z,10.65
2023-05-10T08:24:06.182Z,7.93
2023-05-10T08:26:36.605Z,5.60
2023-05-10T08:29:13.626Z,7.38
2023-05-10T08:31:44.246Z,10.10
2023-05-10T08:34:10.872Z,10.32
2023-05-10T08:36:40.165Z,7.13
2023-05-10T08:39:13.502Z,11.38
2023-05-10T08:41:52.478Z,5.72
2023-05-10T08:44:20.286Z,9.73
2023-05-10T08:46:55.468Z,11.98
2023-05-10T08:49:23.483Z,11.98
2023-05-10T08:51:53.345Z,13.65
2023-05-10T08:54:21.047Z,8.15
2023-05-10T08:56:49.743Z,7.18
2023-05-10T08:59:16.954Z,5.20
2023-05-10T09:01:45.770Z,9.23
2023-05-10T09:04:13.176Z,5.72
2023-05-10T09:06:40.238Z,6.47
2023-05-10T09:09:07.324Z,9.85
2023-05-10T09:11:34.388Z,11.55
2023-05-10T09:14:01.085Z,5.90
2023-05-10T09:16:27.826Z,5.30
2023-05-10T09:18:54.597Z,5.75
2023-05-10T09:21:21.626Z,7.43
2023-05-10T09:23:51.230Z,8.60
2023-05-10T09:26:18.471Z,7.80
2023-05-10T09:28:56.545Z,10.10
2023-05-10T09:31:24.778Z,9.40
2023-05-10T09:33:53.693Z,5.80
2023-05-10T09:36:20.467Z,6.50
2023-05-10T09:38:52.859Z,10.65
2023-05-10T09:41:22.109Z,5.97
2023-05-10T09:43:49.344Z,8.13
2023-05-10T09:46:16.919Z,9.30
2023-05-10T09:48:46.232Z,5.28
2023-05-10T09:51:25.857Z,7.70
2023-05-10T09:54:12.626Z,10.43
2023-05-10T09:56:41.374Z,6.63
2023-05-10T09:59:11.564Z,16.27
2023-05-10T10:01:39.061Z,6.33
2023-05-10T10:04:07.291Z,7.68
2023-05-10T10:06:41.163Z,8.95
2023-05-10T10:09:09.002Z,5.10
2023-05-10T10:11:37.213Z,7.65
2023-05-10T10:14:04.128Z,7.97
2023-05-10T10:16:32.049Z,11.68
2023-05-10T10:18:59.522Z,9.25
2023-05-10T10:21:26.699Z,10.38
2023-05-10T10:23:54.108Z,5.40
2023-05-10T10:26:22.131Z,8.25
2023-05-10T10:29:17.131Z,15.60
2023-05-10T10:32:14.019Z,5.25
2023-05-10T10:34:41.595Z,6.53
2023-05-10T10:37:08.208Z,4.35
2023-05-10T10:39:37.659Z,5.28
2023-05-10T10:42:05.695Z,8.80
2023-05-10T10:44:34.384Z,5.22
2023-05-10T10:47:12.863Z,16.67
2023-05-10T10:49:49.150Z,7.20
2023-05-10T10:52:36.726Z,4.97
2023-05-10T10:55:20.435Z,4.90
2023-05-10T10:57:52.915Z,8.93
2023-05-10T11:00:22.748Z,7.88
2023-05-10T11:02:53.297Z,4.63
2023-05-10T11:05:28.751Z,5.82
2023-05-10T11:07:57.413Z,3.67
2023-05-10T11:10:25.123Z,6.40
2023-05-10T11:13:05.802Z,6.65
2023-05-10T11:15:49.204Z,5.85
2023-05-10T11:18:25.997Z,7.22
2023-05-10T11:21:00.879Z,16.42
2023-05-10T11:23:32.499Z,2.80
2023-05-10T11:26:01.054Z,3.63
2023-05-10T11:28:29.273Z,6.10
2023-05-10T11:30:56.186Z,6.13
2023-05-10T11:33:22.776Z,16.55
2023-05-10T11:35:49.423Z,2.20
2023-05-10T11:38:16.194Z,5.13
2023-05-10T11:40:43.517Z,6.72
2023-05-10T11:43:12.198Z,5.32
2023-05-10T11:45:39.221Z,2.63
2023-05-10T11:48:06.160Z,2.40
2023-05-10T11:50:33.571Z,5.80
2023-05-10T11:53:00.284Z,11.05
2023-05-10T11:55:26.984Z,2.60
2023-05-10T11:58:02.242Z,3.97
2023-05-10T12:00:29.311Z,3.78
2023-05-10T12:02:56.185Z,5.03
2023-05-10T12:05:23.233Z,1.75
2023-05-10T12:07:50.062Z,5.72
2023-05-10T12:10:19.013Z,4.13
2023-05-10T12:12:49.122Z,6.88
2023-05-10T12:15:26.035Z,5.57
2023-05-10T12:17:54.030Z,5.05
2023-05-10T12:20:22.889Z,2.78
2023-05-10T12:22:55.334Z,2.13
2023-05-10T12:25:24.128Z,4.15
2023-05-10T12:27:58.957Z,3.22
2023-05-10T12:30:28.264Z,4.72
2023-05-10T12:33:00.247Z,4.22
2023-05-10T12:35:27.036Z,3.63
2023-05-10T12:37:53.596Z,5.05
2023-05-10T12:40:20.334Z,2.20
2023-05-10T12:42:47.370Z,6.55
2023-05-10T12:45:14.606Z,3.97
2023-05-10T12:47:43.869Z,1.33
2023-05-10T12:50:11.445Z,5.47
2023-05-10T12:52:38.190Z,4.90
2023-05-10T12:55:05.438Z,2.55
2023-05-10T12:57:32.100Z,2.22
2023-05-10T12:59:58.740Z,2.53
2023-05-10T13:02:25.412Z,2.33
2023-05-10T13:04:52.131Z,1.95
2023-05-10T13:07:18.830Z,3.17
2023-05-10T13:09:45.543Z,2.97
2023-05-10T13:12:12.212Z,4.35
2023-05-10T13:14:39.128Z,4.60
2023-05-10T13:17:06.018Z,1.98
2023-05-10T13:19:32.628Z,4.63
2023-05-10T13:21:59.378Z,3.55
2023-05-10T13:24:26.221Z,1.83
2023-05-10T13:26:52.814Z,4.07
2023-05-10T13:29:20.274Z,4.38
2023-05-10T13:31:47.082Z,2.85
2023-05-10T13:34:13.754Z,1.70
2023-05-10T13:36:40.442Z,4.65
2023-05-10T13:39:07.160Z,1.10
2023-05-10T13:41:34.328Z,5.85
2023-05-10T13:44:01.068Z,3.20
2023-05-10T13:46:27.723Z,2.85
2023-05-10T13:48:54.387Z,6.25
2023-05-10T13:51:21.115Z,2.58
2023-05-10T13:53:48.226Z,3.20
2023-05-10T13:56:15.546Z,1.30
2023-05-10T13:58:42.328Z,4.18
2023-05-10T14:01:09.568Z,7.03
2023-05-10T14:03:37.540Z,1.42
2023-05-10T14:06:05.892Z,2.13
2023-05-10T14:08:32.701Z,2.95
2023-05-10T14:10:59.348Z,4.25
2023-05-10T14:13:26.031Z,1.40
2023-05-10T14:15:54.607Z,3.78
2023-05-10T14:18:21.397Z,1.83
2023-05-10T14:20:48.129Z,2.40
2023-05-10T14:23:14.825Z,1.83
2023-05-10T14:25:41.790Z,1.67
2023-05-10T14:28:08.657Z,4.10
2023-05-10T14:30:35.472Z,4.47
2023-05-10T14:33:04.008Z,5.75
2023-05-10T14:35:32.204Z,2.33
2023-05-10T14:37:59.703Z,3.25
2023-05-10T14:40:26.988Z,5.22
2023-05-10T14:42:54.067Z,3.05
2023-05-10T14:45:21.873Z,2.35
2023-05-10T14:47:49.073Z,2.85
2023-05-10T14:50:24.965Z,3.40
2023-05-10T14:53:01.656Z,4.10
2023-05-10T14:55:28.230Z,5.85
2023-05-10T14:57:55.397Z,2.05
2023-05-10T15:00:22.232Z,2.15
2023-05-10T15:02:49.546Z,2.53
2023-05-10T15:05:18.419Z,2.90
2023-05-10T15:07:46.113Z,1.88
2023-05-10T15:10:13.000Z,4.15
2023-05-10T15:12:39.630Z,3.03
2023-05-10T15:15:07.265Z,1.38
2023-05-10T15:17:34.418Z,1.17
2023-05-10T15:20:04.279Z,1.75
2023-05-10T15:22:34.353Z,3.15
2023-05-10T15:25:01.402Z,1.40
2023-05-10T15:27:28.037Z,1.40
2023-05-10T15:29:54.728Z,2.55
2023-05-10T15:32:21.324Z,1.13
2023-05-10T15:34:47.974Z,6.53
2023-05-10T15:37:14.719Z,1.80
2023-05-10T15:39:41.337Z,3.83
2023-05-10T15:42:07.960Z,4.97
2023-05-10T15:44:36.048Z,1.45
2023-05-10T15:47:03.838Z,0.98
2023-05-10T15:49:30.883Z,1.30
2023-05-10T15:51:57.669Z,0.80
2023-05-10T15:54:24.398Z,1.38
2023-05-10T15:56:51.084Z,1.98
2023-05-10T15:59:18.208Z,0.80
2023-05-10T16:01:46.324Z,0.70
2023-05-10T16:04:12.907Z,1.05
2023-05-10T16:06:40.113Z,1.92
2023-05-10T16:09:06.703Z,3.47
2023-05-10T16:11:33.409Z,2.10
2023-05-10T16:14:00.066Z,1.20
2023-05-10T16:16:26.796Z,1.55
2023-05-10T16:18:53.545Z,6.85
2023-05-10T16:21:20.221Z,6.07
2023-05-10T16:23:47.038Z,10.20
2023-05-10T16:26:14.468Z,5.85
2023-05-10T16:28:42.019Z,6.03
2023-05-10T17:24:01.842Z,2.17
2023-05-10T17:26:29.990Z,3.20
2023-05-10T17:28:56.754Z,1.35
2023-05-10T17:31:23.489Z,1.20
2023-05-10T17:33:50.117Z,2.20
2023-05-10T17:36:16.823Z,1.00
2023-05-10T17:38:43.585Z,1.77
2023-05-10T17:41:10.201Z,1.20
2023-05-10T18:59:42.245Z,1.40
2023-05-10T19:02:08.901Z,1.20
2023-05-10T19:04:35.573Z,1.50
2023-05-10T19:07:03.208Z,2.63
2023-05-10T19:09:29.965Z,2.13
2023-05-10T19:11:56.833Z,6.18
2023-05-10T19:14:24.988Z,1.35
2023-05-10T19:16:51.874Z,2.95
2023-05-10T19:19:20.126Z,1.50
2023-05-10T19:21:47.825Z,1.23
2023-05-10T19:24:14.560Z,2.60
2023-05-10T19:26:41.446Z,2.45
2023-05-10T19:29:08.393Z,3.35
2023-05-10T19:31:35.305Z,2.53
2023-05-10T19:34:04.233Z,2.83
2023-05-10T19:36:32.624Z,4.78
2023-05-10T19:38:59.255Z,4.05
2023-05-10T19:41:25.871Z,3.78
2023-05-10T19:43:53.036Z,1.65
2023-05-10T19:46:20.343Z,1.88
2023-05-10T19:48:49.197Z,1.80
2023-05-10T19:51:15.901Z,5.28
2023-05-10T19:53:44.817Z,13.38
2023-05-10T19:56:13.206Z,3.70
2023-05-10T19:58:40.810Z,1.98
2023-05-10T20:01:08.082Z,2.28
2023-05-10T20:03:36.044Z,2.78
2023-05-10T20:06:04.078Z,2.95
2023-05-10T20:08:31.096Z,1.92
2023-05-10T20:10:59.181Z,5.45
2023-05-10T20:13:26.002Z,2.97
2023-05-10T20:15:59.457Z,3.60
2023-05-10T20:18:26.719Z,1.88
2023-05-10T20:20:55.103Z,1.27
2023-05-10T20:23:22.213Z,2.20
2023-05-10T20:25:48.956Z,2.78
2023-05-10T20:28:15.929Z,9.43
2023-05-10T20:30:42.544Z,7.75
2023-05-10T20:33:09.428Z,9.07
2023-05-10T20:35:36.567Z,6.25
2023-05-10T20:38:04.076Z,3.00
2023-05-10T20:40:31.885Z,6.38
2023-05-10T20:42:58.495Z,7.65
2023-05-10T20:45:25.376Z,9.48
2023-05-10T20:47:52.127Z,8.27
2023-05-10T20:50:18.938Z,4.68
2023-05-10T20:52:45.734Z,4.65
2023-05-10T20:55:12.843Z,5.82
2023-05-10T20:57:39.455Z,5.65
2023-05-10T21:00:06.873Z,3.90
2023-05-10T21:02:33.609Z,6.85
2023-05-10T21:05:00.558Z,5.30
2023-05-10T21:07:28.094Z,6.07
2023-05-10T21:09:54.759Z,4.45
2023-05-10T21:12:22.593Z,9.48
2023-05-10T21:14:49.535Z,7.63
2023-05-10T21:17:19.458Z,6.05
2023-05-10T21:19:46.998Z,12.40
2023-05-10T21:22:14.018Z,2.35
2023-05-10T21:24:40.987Z,4.25
2023-05-10T21:27:09.186Z,3.58
2023-05-10T21:29:35.816Z,2.95
2023-05-10T21:32:02.561Z,6.53
2023-05-10T21:34:31.468Z,4.57
2023-05-10T21:36:58.062Z,3.45
2023-05-10T21:39:24.650Z,3.20
2023-05-10T21:41:51.296Z,4.50
2023-05-10T21:44:17.899Z,1.95
2023-05-10T21:46:44.538Z,3.55
2023-05-10T21:49:11.250Z,5.63
2023-05-10T21:51:37.829Z,2.20
2023-05-10T21:54:04.636Z,2.15
2023-05-10T21:56:31.242Z,5.55
2023-05-10T21:58:58.035Z,3.25
2023-05-10T22:01:25.043Z,1.38
2023-05-10T22:03:51.639Z,3.63
2023-05-10T22:06:18.280Z,2.05
2023-05-10T22:08:44.935Z,5.07
2023-05-10T22:11:11.506Z,2.20
2023-05-10T22:13:38.049Z,1.50
2023-05-10T22:16:05.148Z,3.55
2023-05-10T22:18:32.211Z,2.92
2023-05-10T22:20:58.908Z,1.98
2023-05-10T22:23:25.573Z,1.30
2023-05-10T22:25:52.676Z,4.40
2023-05-10T22:28:19.569Z,1.65
2023-05-10T22:30:46.231Z,6.68
2023-05-10T22:33:12.844Z,1.70
2023-05-10T22:35:39.378Z,2.05
2023-05-10T22:38:06.345Z,4.15
2023-05-10T22:40:33.119Z,2.08
2023-05-10T22:43:08.907Z,2.90
2023-05-10T22:45:35.472Z,1.90
2023-05-10T22:48:05.079Z,3.53
2023-05-10T22:50:31.938Z,3.67
2023-05-10T22:52:59.398Z,2.47
2023-05-10T22:55:26.327Z,4.75
2023-05-10T22:57:53.422Z,3.05
2023-05-10T23:00:20.429Z,4.43
2023-05-10T23:02:47.238Z,2.47
2023-05-10T23:05:14.006Z,4.13
2023-05-10T23:07:40.652Z,3.30
2023-05-10T23:10:08.156Z,7.45
2023-05-10T23:12:34.940Z,1.30
2023-05-10T23:15:01.746Z,4.35
2023-05-10T23:17:28.570Z,5.22
2023-05-10T23:19:55.648Z,2.88
2023-05-10T23:22:22.160Z,1.35
2023-05-10T23:24:50.158Z,3.05
2023-05-10T23:27:16.773Z,2.70
2023-05-10T23:29:43.334Z,4.43
2023-05-10T23:32:09.945Z,3.55
2023-05-10T23:34:36.843Z,5.70
2023-05-10T23:37:03.820Z,10.63
2023-05-10T23:39:31.899Z,5.75
2023-05-10T23:41:58.513Z,1.60
2023-05-10T23:44:25.089Z,1.42
2023-05-10T23:46:51.831Z,2.30
2023-05-10T23:49:18.633Z,4.32
2023-05-10T23:51:45.196Z,2.03
2023-05-10T23:54:12.273Z,4.20
2023-05-10T23:56:38.902Z,3.47
2023-05-10T23:59:06.163Z,1.73
